sensor_id;sensor_type;location;lat;lon;timestamp;P1;durP1;ratioP1;P2;durP2;ratioP2
19016;SDS011;9641;51.494;6.670;2023-09-30T00:02:26;14.87;;;5.50;;
19016;SDS011;9641;51.494;6.670;2023-09-30T00:04:55;15.93;;;5.93;;
19016;SDS011;9641;51.494;6.670;2023-09-30T00:07:22;14.80;;;5.60;;
19016;SDS011;9641;51.494;6.670;2023-09-30T00:09:48;14.43;;;5.30;;
19016;SDS011;9641;51.494;6.670;2023-09-30T00:12:17;9.40;;;5.27;;
19016;SDS011;9641;51.494;6.670;2023-09-30T00:14:44;18.53;;;6.63;;
19016;SDS011;9641;51.494;6.670;2023-09-30T00:17:10;17.13;;;5.73;;
19016;SDS011;9641;51.494;6.670;2023-09-30T00:19:38;13.50;;;5.87;;
19016;SDS011;9641;51.494;6.670;2023-09-30T00:22:06;12.30;;;5.83;;
19016;SDS011;9641;51.494;6.670;2023-09-30T00:24:34;14.73;;;5.87;;
19016;SDS011;9641;51.494;6.670;2023-09-30T00:27:01;13.73;;;5.83;;
19016;SDS011;9641;51.494;6.670;2023-09-30T00:29:28;14.37;;;5.63;;
19016;SDS011;9641;51.494;6.670;2023-09-30T00:31:55;13.30;;;5.63;;
19016;SDS011;9641;51.494;6.670;2023-09-30T00:34:22;12.97;;;5.70;;
19016;SDS011;9641;51.494;6.670;2023-09-30T00:36:49;12.07;;;5.20;;
19016;SDS011;9641;51.494;6.670;2023-09-30T00:39:17;11.50;;;5.53;;
19016;SDS011;9641;51.494;6.670;2023-09-30T00:41:44;12.87;;;5.20;;
19016;SDS011;9641;51.494;6.670;2023-09-30T00:44:12;15.73;;;6.17;;
19016;SDS011;9641;51.494;6.670;2023-09-30T00:46:39;13.17;;;7.37;;
19016;SDS011;9641;51.494;6.670;2023-09-30T00:49:08;16.70;;;7.30;;
19016;SDS011;9641;51.494;6.670;2023-09-30T00:51:36;14.83;;;7.37;;
19016;SDS011;9641;51.494;6.670;2023-09-30T00:54:03;13.20;;;6.80;;
19016;SDS011;9641;51.494;6.670;2023-09-30T00:56:32;12.93;;;6.77;;
19016;SDS011;9641;51.494;6.670;2023-09-30T00:59:01;19.23;;;8.73;;
19016;SDS011;9641;51.494;6.670;2023-09-30T01:01:31;18.60;;;8.20;;
19016;SDS011;9641;51.494;6.670;2023-09-30T01:04:00;17.97;;;10.07;;
19016;SDS011;9641;51.494;6.670;2023-09-30T01:06:27;21.00;;;9.63;;
19016;SDS011;9641;51.494;6.670;2023-09-30T01:08:54;19.20;;;11.43;;
19016;SDS011;9641;51.494;6.670;2023-09-30T01:11:21;22.07;;;11.57;;
19016;SDS011;9641;51.494;6.670;2023-09-30T01:13:50;18.63;;;10.90;;
19016;SDS011;9641;51.494;6.670;2023-09-30T01:16:19;17.13;;;9.67;;
19016;SDS011;9641;51.494;6.670;2023-09-30T01:18:46;20.80;;;12.13;;
19016;SDS011;9641;51.494;6.670;2023-09-30T01:21:13;19.93;;;11.47;;
19016;SDS011;9641;51.494;6.670;2023-09-30T01:23:42;22.30;;;12.13;;
19016;SDS011;9641;51.494;6.670;2023-09-30T01:26:12;21.67;;;11.43;;
19016;SDS011;9641;51.494;6.670;2023-09-30T01:28:39;17.63;;;8.83;;
19016;SDS011;9641;51.494;6.670;2023-09-30T01:31:08;19.53;;;10.07;;
19016;SDS011;9641;51.494;6.670;2023-09-30T01:33:35;24.30;;;11.57;;
19016;SDS011;9641;51.494;6.670;2023-09-30T01:36:02;25.20;;;10.93;;
19016;SDS011;9641;51.494;6.670;2023-09-30T01:38:32;19.90;;;10.07;;
19016;SDS011;9641;51.494;6.670;2023-09-30T01:41:01;18.43;;;10.37;;
19016;SDS011;9641;51.494;6.670;2023-09-30T01:43:28;15.77;;;7.90;;
19016;SDS011;9641;51.494;6.670;2023-09-30T01:45:55;16.33;;;8.57;;
19016;SDS011;9641;51.494;6.670;2023-09-30T01:48:23;15.50;;;7.93;;
19016;SDS011;9641;51.494;6.670;2023-09-30T01:50:51;18.97;;;7.87;;
19016;SDS011;9641;51.494;6.670;2023-09-30T01:53:17;14.97;;;9.37;;
19016;SDS011;9641;51.494;6.670;2023-09-30T01:55:44;14.03;;;8.83;;
19016;SDS011;9641;51.494;6.670;2023-09-30T01:58:14;15.90;;;9.57;;
19016;SDS011;9641;51.494;6.670;2023-09-30T02:00:41;13.37;;;7.87;;
19016;SDS011;9641;51.494;6.670;2023-09-30T02:03:08;19.07;;;10.13;;
19016;SDS011;9641;51.494;6.670;2023-09-30T02:05:35;18.57;;;10.80;;
19016;SDS011;9641;51.494;6.670;2023-09-30T02:08:03;18.60;;;9.37;;
19016;SDS011;9641;51.494;6.670;2023-09-30T02:10:31;15.30;;;8.13;;
19016;SDS011;9641;51.494;6.670;2023-09-30T02:12:58;16.93;;;9.17;;
19016;SDS011;9641;51.494;6.670;2023-09-30T02:15:27;14.57;;;8.97;;
19016;SDS011;9641;51.494;6.670;2023-09-30T02:17:53;23.37;;;10.20;;
19016;SDS011;9641;51.494;6.670;2023-09-30T02:20:20;15.93;;;8.60;;
19016;SDS011;9641;51.494;6.670;2023-09-30T02:22:50;21.37;;;9.50;;
19016;SDS011;9641;51.494;6.670;2023-09-30T02:25:17;16.33;;;8.90;;
19016;SDS011;9641;51.494;6.670;2023-09-30T02:27:44;13.73;;;8.63;;
19016;SDS011;9641;51.494;6.670;2023-09-30T02:30:12;17.93;;;8.93;;
19016;SDS011;9641;51.494;6.670;2023-09-30T02:32:40;15.33;;;7.70;;
19016;SDS011;9641;51.494;6.670;2023-09-30T02:35:07;15.87;;;7.50;;
19016;SDS011;9641;51.494;6.670;2023-09-30T02:37:36;15.77;;;8.57;;
19016;SDS011;9641;51.494;6.670;2023-09-30T02:40:03;16.47;;;8.50;;
19016;SDS011;9641;51.494;6.670;2023-09-30T02:42:34;15.07;;;8.07;;
19016;SDS011;9641;51.494;6.670;2023-09-30T02:45:03;16.73;;;9.47;;
19016;SDS011;9641;51.494;6.670;2023-09-30T02:47:30;18.17;;;9.03;;
19016;SDS011;9641;51.494;6.670;2023-09-30T02:50:00;20.60;;;11.63;;
19016;SDS011;9641;51.494;6.670;2023-09-30T02:52:27;19.43;;;10.67;;
19016;SDS011;9641;51.494;6.670;2023-09-30T02:54:55;18.50;;;10.17;;
19016;SDS011;9641;51.494;6.670;2023-09-30T02:57:23;17.93;;;9.83;;
19016;SDS011;9641;51.494;6.670;2023-09-30T02:59:50;24.17;;;10.87;;
19016;SDS011;9641;51.494;6.670;2023-09-30T03:02:19;21.07;;;10.30;;
19016;SDS011;9641;51.494;6.670;2023-09-30T03:04:49;17.20;;;8.90;;
19016;SDS011;9641;51.494;6.670;2023-09-30T03:07:19;16.97;;;8.53;;
19016;SDS011;9641;51.494;6.670;2023-09-30T03:09:46;16.97;;;8.77;;
19016;SDS011;9641;51.494;6.670;2023-09-30T03:12:13;19.40;;;8.70;;
19016;SDS011;9641;51.494;6.670;2023-09-30T03:14:40;21.10;;;8.53;;
19016;SDS011;9641;51.494;6.670;2023-09-30T03:17:07;17.77;;;8.30;;
19016;SDS011;9641;51.494;6.670;2023-09-30T03:19:37;20.70;;;8.10;;
19016;SDS011;9641;51.494;6.670;2023-09-30T03:22:04;19.97;;;7.77;;
19016;SDS011;9641;51.494;6.670;2023-09-30T03:24:37;19.80;;;8.13;;
19016;SDS011;9641;51.494;6.670;2023-09-30T03:27:04;16.83;;;7.33;;
19016;SDS011;9641;51.494;6.670;2023-09-30T03:29:31;13.63;;;6.90;;
19016;SDS011;9641;51.494;6.670;2023-09-30T03:31:58;11.93;;;6.97;;
19016;SDS011;9641;51.494;6.670;2023-09-30T03:34:23;15.40;;;7.30;;
19016;SDS011;9641;51.494;6.670;2023-09-30T03:36:50;20.30;;;8.70;;
19016;SDS011;9641;51.494;6.670;2023-09-30T03:39:17;18.87;;;8.63;;
19016;SDS011;9641;51.494;6.670;2023-09-30T03:41:53;17.37;;;8.43;;
19016;SDS011;9641;51.494;6.670;2023-09-30T03:44:21;15.13;;;6.70;;
19016;SDS011;9641;51.494;6.670;2023-09-30T03:46:49;14.13;;;7.20;;
19016;SDS011;9641;51.494;6.670;2023-09-30T03:49:17;14.77;;;6.03;;
19016;SDS011;9641;51.494;6.670;2023-09-30T03:51:46;13.83;;;5.97;;
19016;SDS011;9641;51.494;6.670;2023-09-30T03:54:15;15.10;;;5.93;;
19016;SDS011;9641;51.494;6.670;2023-09-30T03:56:44;12.13;;;5.90;;
19016;SDS011;9641;51.494;6.670;2023-09-30T03:59:13;14.60;;;5.97;;
19016;SDS011;9641;51.494;6.670;2023-09-30T04:01:41;10.93;;;5.70;;
19016;SDS011;9641;51.494;6.670;2023-09-30T04:04:07;12.33;;;5.53;;
19016;SDS011;9641;51.494;6.670;2023-09-30T04:06:35;13.17;;;4.83;;
19016;SDS011;9641;51.494;6.670;2023-09-30T04:09:03;11.13;;;4.93;;
19016;SDS011;9641;51.494;6.670;2023-09-30T04:11:35;11.07;;;5.67;;
19016;SDS011;9641;51.494;6.670;2023-09-30T04:14:02;14.90;;;5.47;;
19016;SDS011;9641;51.494;6.670;2023-09-30T04:16:30;11.33;;;4.90;;
19016;SDS011;9641;51.494;6.670;2023-09-30T04:18:57;13.23;;;5.50;;
19016;SDS011;9641;51.494;6.670;2023-09-30T04:21:25;11.43;;;5.50;;
19016;SDS011;9641;51.494;6.670;2023-09-30T04:23:53;13.47;;;5.37;;
19016;SDS011;9641;51.494;6.670;2023-09-30T04:26:21;11.37;;;5.77;;
19016;SDS011;9641;51.494;6.670;2023-09-30T04:28:48;10.00;;;4.83;;
19016;SDS011;9641;51.494;6.670;2023-09-30T04:31:15;10.73;;;5.33;;
19016;SDS011;9641;51.494;6.670;2023-09-30T04:33:44;15.43;;;6.03;;
19016;SDS011;9641;51.494;6.670;2023-09-30T04:36:11;10.60;;;5.10;;
19016;SDS011;9641;51.494;6.670;2023-09-30T04:38:39;19.63;;;6.20;;
19016;SDS011;9641;51.494;6.670;2023-09-30T04:41:05;13.20;;;5.30;;
19016;SDS011;9641;51.494;6.670;2023-09-30T04:43:33;16.20;;;5.97;;
19016;SDS011;9641;51.494;6.670;2023-09-30T04:46:00;11.20;;;5.50;;
19016;SDS011;9641;51.494;6.670;2023-09-30T04:48:27;11.33;;;5.40;;
19016;SDS011;9641;51.494;6.670;2023-09-30T04:50:55;17.73;;;6.60;;
19016;SDS011;9641;51.494;6.670;2023-09-30T04:53:22;13.07;;;5.47;;
19016;SDS011;9641;51.494;6.670;2023-09-30T04:55:49;18.17;;;6.20;;
19016;SDS011;9641;51.494;6.670;2023-09-30T04:58:16;15.47;;;6.03;;
19016;SDS011;9641;51.494;6.670;2023-09-30T05:00:43;22.20;;;6.20;;
19016;SDS011;9641;51.494;6.670;2023-09-30T05:03:10;12.87;;;6.10;;
19016;SDS011;9641;51.494;6.670;2023-09-30T05:05:41;16.57;;;6.77;;
19016;SDS011;9641;51.494;6.670;2023-09-30T05:08:09;13.47;;;6.33;;
19016;SDS011;9641;51.494;6.670;2023-09-30T05:10:38;15.53;;;7.37;;
19016;SDS011;9641;51.494;6.670;2023-09-30T05:13:04;14.63;;;6.63;;
19016;SDS011;9641;51.494;6.670;2023-09-30T05:15:31;14.60;;;5.90;;
19016;SDS011;9641;51.494;6.670;2023-09-30T05:18:00;15.90;;;6.57;;
19016;SDS011;9641;51.494;6.670;2023-09-30T05:20:27;11.13;;;6.20;;
19016;SDS011;9641;51.494;6.670;2023-09-30T05:22:54;18.17;;;6.90;;
19016;SDS011;9641;51.494;6.670;2023-09-30T05:25:22;18.53;;;8.23;;
19016;SDS011;9641;51.494;6.670;2023-09-30T05:27:51;11.63;;;6.60;;
19016;SDS011;9641;51.494;6.670;2023-09-30T05:30:19;20.80;;;7.33;;
19016;SDS011;9641;51.494;6.670;2023-09-30T05:32:46;14.17;;;6.77;;
19016;SDS011;9641;51.494;6.670;2023-09-30T05:35:14;19.10;;;7.17;;
19016;SDS011;9641;51.494;6.670;2023-09-30T05:37:42;16.03;;;7.50;;
19016;SDS011;9641;51.494;6.670;2023-09-30T05:40:10;15.47;;;6.93;;
19016;SDS011;9641;51.494;6.670;2023-09-30T05:42:46;18.10;;;7.23;;
19016;SDS011;9641;51.494;6.670;2023-09-30T05:45:15;17.97;;;8.27;;
19016;SDS011;9641;51.494;6.670;2023-09-30T05:47:42;18.90;;;7.83;;
19016;SDS011;9641;51.494;6.670;2023-09-30T05:50:09;16.43;;;8.00;;
19016;SDS011;9641;51.494;6.670;2023-09-30T05:52:39;16.77;;;7.97;;
19016;SDS011;9641;51.494;6.670;2023-09-30T05:55:06;16.37;;;8.00;;
19016;SDS011;9641;51.494;6.670;2023-09-30T05:57:34;12.07;;;6.80;;
19016;SDS011;9641;51.494;6.670;2023-09-30T06:00:03;18.17;;;8.53;;
19016;SDS011;9641;51.494;6.670;2023-09-30T06:02:37;20.33;;;7.40;;
19016;SDS011;9641;51.494;6.670;2023-09-30T06:05:05;17.17;;;8.20;;
19016;SDS011;9641;51.494;6.670;2023-09-30T06:07:32;16.17;;;8.57;;
19016;SDS011;9641;51.494;6.670;2023-09-30T06:09:59;14.20;;;8.20;;
19016;SDS011;9641;51.494;6.670;2023-09-30T06:12:28;18.73;;;9.27;;
19016;SDS011;9641;51.494;6.670;2023-09-30T06:14:55;18.00;;;8.97;;
19016;SDS011;9641;51.494;6.670;2023-09-30T06:17:25;18.93;;;8.97;;
19016;SDS011;9641;51.494;6.670;2023-09-30T06:19:51;20.33;;;9.13;;
19016;SDS011;9641;51.494;6.670;2023-09-30T06:22:18;17.60;;;9.33;;
19016;SDS011;9641;51.494;6.670;2023-09-30T06:24:46;17.93;;;9.40;;
19016;SDS011;9641;51.494;6.670;2023-09-30T06:27:13;20.07;;;9.20;;
19016;SDS011;9641;51.494;6.670;2023-09-30T06:29:40;20.50;;;9.40;;
19016;SDS011;9641;51.494;6.670;2023-09-30T06:32:08;16.90;;;9.13;;
19016;SDS011;9641;51.494;6.670;2023-09-30T06:34:36;17.90;;;9.50;;
19016;SDS011;9641;51.494;6.670;2023-09-30T06:37:03;19.17;;;10.33;;
19016;SDS011;9641;51.494;6.670;2023-09-30T06:39:30;21.13;;;10.27;;
19016;SDS011;9641;51.494;6.670;2023-09-30T06:41:56;25.07;;;10.27;;
19016;SDS011;9641;51.494;6.670;2023-09-30T06:44:23;17.17;;;10.27;;
19016;SDS011;9641;51.494;6.670;2023-09-30T06:46:50;23.07;;;11.70;;
19016;SDS011;9641;51.494;6.670;2023-09-30T06:49:20;19.93;;;11.63;;
19016;SDS011;9641;51.494;6.670;2023-09-30T06:51:48;25.27;;;10.80;;
19016;SDS011;9641;51.494;6.670;2023-09-30T06:54:15;20.47;;;10.87;;
19016;SDS011;9641;51.494;6.670;2023-09-30T06:56:42;24.50;;;11.67;;
19016;SDS011;9641;51.494;6.670;2023-09-30T06:59:09;20.10;;;11.20;;
19016;SDS011;9641;51.494;6.670;2023-09-30T07:01:36;18.07;;;11.20;;
19016;SDS011;9641;51.494;6.670;2023-09-30T07:04:03;19.80;;;11.23;;
19016;SDS011;9641;51.494;6.670;2023-09-30T07:06:29;18.93;;;11.30;;
19016;SDS011;9641;51.494;6.670;2023-09-30T07:08:58;22.27;;;12.20;;
19016;SDS011;9641;51.494;6.670;2023-09-30T07:11:27;24.43;;;12.00;;
19016;SDS011;9641;51.494;6.670;2023-09-30T07:13:55;21.83;;;13.07;;
19016;SDS011;9641;51.494;6.670;2023-09-30T07:16:22;22.33;;;13.77;;
19016;SDS011;9641;51.494;6.670;2023-09-30T07:18:49;24.57;;;12.70;;
19016;SDS011;9641;51.494;6.670;2023-09-30T07:21:16;29.17;;;14.70;;
19016;SDS011;9641;51.494;6.670;2023-09-30T07:23:44;23.80;;;13.60;;
19016;SDS011;9641;51.494;6.670;2023-09-30T07:26:12;27.33;;;15.10;;
19016;SDS011;9641;51.494;6.670;2023-09-30T07:28:39;25.10;;;13.07;;
19016;SDS011;9641;51.494;6.670;2023-09-30T07:31:06;29.87;;;14.93;;
19016;SDS011;9641;51.494;6.670;2023-09-30T07:33:33;25.33;;;14.20;;
19016;SDS011;9641;51.494;6.670;2023-09-30T07:36:00;23.80;;;13.73;;
19016;SDS011;9641;51.494;6.670;2023-09-30T07:38:27;23.30;;;13.27;;
19016;SDS011;9641;51.494;6.670;2023-09-30T07:40:54;24.87;;;14.13;;
19016;SDS011;9641;51.494;6.670;2023-09-30T07:43:22;26.63;;;14.43;;
19016;SDS011;9641;51.494;6.670;2023-09-30T07:45:49;26.50;;;14.53;;
19016;SDS011;9641;51.494;6.670;2023-09-30T07:48:15;24.77;;;14.17;;
19016;SDS011;9641;51.494;6.670;2023-09-30T07:50:42;25.37;;;13.63;;
19016;SDS011;9641;51.494;6.670;2023-09-30T07:53:09;22.30;;;13.33;;
19016;SDS011;9641;51.494;6.670;2023-09-30T07:55:37;21.80;;;13.37;;
19016;SDS011;9641;51.494;6.670;2023-09-30T07:58:04;22.07;;;12.23;;
19016;SDS011;9641;51.494;6.670;2023-09-30T08:00:34;22.17;;;12.70;;
19016;SDS011;9641;51.494;6.670;2023-09-30T08:03:01;21.57;;;12.27;;
19016;SDS011;9641;51.494;6.670;2023-09-30T08:05:31;25.53;;;12.87;;
19016;SDS011;9641;51.494;6.670;2023-09-30T08:07:58;21.80;;;12.90;;
19016;SDS011;9641;51.494;6.670;2023-09-30T08:10:26;24.43;;;13.40;;
19016;SDS011;9641;51.494;6.670;2023-09-30T08:12:54;24.37;;;12.93;;
19016;SDS011;9641;51.494;6.670;2023-09-30T08:15:23;23.83;;;12.47;;
19016;SDS011;9641;51.494;6.670;2023-09-30T08:17:51;24.47;;;12.60;;
19016;SDS011;9641;51.494;6.670;2023-09-30T08:20:18;21.50;;;12.57;;
19016;SDS011;9641;51.494;6.670;2023-09-30T08:22:45;21.47;;;13.10;;
19016;SDS011;9641;51.494;6.670;2023-09-30T08:25:13;19.73;;;11.67;;
19016;SDS011;9641;51.494;6.670;2023-09-30T08:27:40;26.13;;;12.40;;
19016;SDS011;9641;51.494;6.670;2023-09-30T08:30:08;19.47;;;11.20;;
19016;SDS011;9641;51.494;6.670;2023-09-30T08:32:35;17.57;;;10.80;;
19016;SDS011;9641;51.494;6.670;2023-09-30T08:35:04;20.87;;;10.60;;
19016;SDS011;9641;51.494;6.670;2023-09-30T08:37:33;20.13;;;10.80;;
19016;SDS011;9641;51.494;6.670;2023-09-30T08:40:00;19.03;;;10.27;;
19016;SDS011;9641;51.494;6.670;2023-09-30T08:42:27;17.33;;;10.03;;
19016;SDS011;9641;51.494;6.670;2023-09-30T08:44:57;18.77;;;10.40;;
19016;SDS011;9641;51.494;6.670;2023-09-30T08:47:24;17.37;;;9.40;;
19016;SDS011;9641;51.494;6.670;2023-09-30T08:49:53;19.07;;;11.07;;
19016;SDS011;9641;51.494;6.670;2023-09-30T08:52:24;17.40;;;10.50;;
19016;SDS011;9641;51.494;6.670;2023-09-30T08:54:52;19.23;;;9.53;;
19016;SDS011;9641;51.494;6.670;2023-09-30T08:57:19;16.50;;;8.80;;
19016;SDS011;9641;51.494;6.670;2023-09-30T08:59:46;14.43;;;8.40;;
19016;SDS011;9641;51.494;6.670;2023-09-30T09:02:15;14.17;;;8.57;;
19016;SDS011;9641;51.494;6.670;2023-09-30T09:04:42;19.67;;;9.33;;
19016;SDS011;9641;51.494;6.670;2023-09-30T09:07:09;18.37;;;9.00;;
19016;SDS011;9641;51.494;6.670;2023-09-30T09:09:37;13.33;;;8.43;;
19016;SDS011;9641;51.494;6.670;2023-09-30T09:12:04;15.00;;;8.53;;
19016;SDS011;9641;51.494;6.670;2023-09-30T09:14:37;14.97;;;7.90;;
19016;SDS011;9641;51.494;6.670;2023-09-30T09:17:06;14.93;;;9.00;;
19016;SDS011;9641;51.494;6.670;2023-09-30T09:19:33;14.57;;;8.73;;
19016;SDS011;9641;51.494;6.670;2023-09-30T09:22:01;13.07;;;8.30;;
19016;SDS011;9641;51.494;6.670;2023-09-30T09:24:30;16.27;;;8.60;;
19016;SDS011;9641;51.494;6.670;2023-09-30T09:27:05;16.73;;;8.13;;
19016;SDS011;9641;51.494;6.670;2023-09-30T09:29:33;13.37;;;7.37;;
19016;SDS011;9641;51.494;6.670;2023-09-30T09:32:07;12.43;;;6.97;;
19016;SDS011;9641;51.494;6.670;2023-09-30T09:34:35;14.83;;;7.67;;
19016;SDS011;9641;51.494;6.670;2023-09-30T09:37:12;12.20;;;6.30;;
19016;SDS011;9641;51.494;6.670;2023-09-30T09:39:43;12.73;;;6.17;;
19016;SDS011;9641;51.494;6.670;2023-09-30T09:42:25;12.47;;;6.17;;
19016;SDS011;9641;51.494;6.670;2023-09-30T09:44:53;10.63;;;6.43;;
19016;SDS011;9641;51.494;6.670;2023-09-30T09:47:22;11.87;;;6.07;;
19016;SDS011;9641;51.494;6.670;2023-09-30T09:49:50;12.67;;;6.23;;
19016;SDS011;9641;51.494;6.670;2023-09-30T09:52:18;10.63;;;6.70;;
19016;SDS011;9641;51.494;6.670;2023-09-30T09:54:46;13.20;;;6.87;;
19016;SDS011;9641;51.494;6.670;2023-09-30T09:57:13;11.13;;;6.13;;
19016;SDS011;9641;51.494;6.670;2023-09-30T09:59:43;11.97;;;6.10;;
19016;SDS011;9641;51.494;6.670;2023-09-30T10:02:12;13.33;;;6.37;;
19016;SDS011;9641;51.494;6.670;2023-09-30T10:04:40;13.20;;;6.80;;
19016;SDS011;9641;51.494;6.670;2023-09-30T10:07:09;10.87;;;5.93;;
19016;SDS011;9641;51.494;6.670;2023-09-30T10:09:41;11.40;;;6.33;;
19016;SDS011;9641;51.494;6.670;2023-09-30T10:12:12;11.20;;;6.30;;
19016;SDS011;9641;51.494;6.670;2023-09-30T10:14:41;11.93;;;6.17;;
19016;SDS011;9641;51.494;6.670;2023-09-30T10:17:12;13.23;;;6.22;;
19016;SDS011;9641;51.494;6.670;2023-09-30T10:22:30;13.20;;;6.63;;
19016;SDS011;9641;51.494;6.670;2023-09-30T10:24:57;10.93;;;6.40;;
19016;SDS011;9641;51.494;6.670;2023-09-30T10:27:29;14.30;;;5.73;;
19016;SDS011;9641;51.494;6.670;2023-09-30T10:29:58;8.13;;;5.67;;
19016;SDS011;9641;51.494;6.670;2023-09-30T10:41:06;11.37;;;4.87;;
19016;SDS011;9641;51.494;6.670;2023-09-30T10:43:34;8.57;;;4.43;;
19016;SDS011;9641;51.494;6.670;2023-09-30T10:46:02;12.27;;;4.65;;
19016;SDS011;9641;51.494;6.670;2023-09-30T10:48:35;12.35;;;4.60;;
19016;SDS011;9641;51.494;6.670;2023-09-30T10:53:50;10.00;;;5.38;;
19016;SDS011;9641;51.494;6.670;2023-09-30T10:56:19;8.10;;;4.45;;
19016;SDS011;9641;51.494;6.670;2023-09-30T10:58:46;11.10;;;4.65;;
19016;SDS011;9641;51.494;6.670;2023-09-30T11:01:17;9.55;;;4.97;;
19016;SDS011;9641;51.494;6.670;2023-09-30T11:03:45;6.88;;;4.75;;
19016;SDS011;9641;51.494;6.670;2023-09-30T11:06:14;10.75;;;4.90;;
19016;SDS011;9641;51.494;6.670;2023-09-30T11:08:46;7.65;;;4.25;;
19016;SDS011;9641;51.494;6.670;2023-09-30T11:11:17;6.70;;;3.90;;
19016;SDS011;9641;51.494;6.670;2023-09-30T11:13:44;6.63;;;3.67;;
19016;SDS011;9641;51.494;6.670;2023-09-30T11:16:11;8.63;;;3.83;;
19016;SDS011;9641;51.494;6.670;2023-09-30T11:18:38;8.05;;;4.20;;
19016;SDS011;9641;51.494;6.670;2023-09-30T11:21:05;10.60;;;4.22;;
19016;SDS011;9641;51.494;6.670;2023-09-30T11:23:33;6.70;;;4.22;;
19016;SDS011;9641;51.494;6.670;2023-09-30T11:26:03;10.00;;;4.60;;
19016;SDS011;9641;51.494;6.670;2023-09-30T11:28:38;8.20;;;3.88;;
19016;SDS011;9641;51.494;6.670;2023-09-30T11:31:07;6.78;;;3.97;;
19016;SDS011;9641;51.494;6.670;2023-09-30T11:33:52;10.52;;;4.07;;
19016;SDS011;9641;51.494;6.670;2023-09-30T11:36:22;7.63;;;4.05;;
19016;SDS011;9641;51.494;6.670;2023-09-30T11:38:50;7.65;;;3.47;;
19016;SDS011;9641;51.494;6.670;2023-09-30T11:41:20;4.93;;;3.40;;
19016;SDS011;9641;51.494;6.670;2023-09-30T11:44:03;7.60;;;4.10;;
19016;SDS011;9641;51.494;6.670;2023-09-30T11:46:32;7.78;;;3.70;;
19016;SDS011;9641;51.494;6.670;2023-09-30T11:49:23;6.53;;;3.50;;
19016;SDS011;9641;51.494;6.670;2023-09-30T11:51:51;6.78;;;3.55;;
19016;SDS011;9641;51.494;6.670;2023-09-30T11:54:18;6.63;;;3.63;;
19016;SDS011;9641;51.494;6.670;2023-09-30T11:56:48;8.80;;;4.38;;
19016;SDS011;9641;51.494;6.670;2023-09-30T11:59:16;7.75;;;4.18;;
19016;SDS011;9641;51.494;6.670;2023-09-30T12:01:47;7.00;;;3.80;;
19016;SDS011;9641;51.494;6.670;2023-09-30T12:04:14;6.95;;;3.38;;
19016;SDS011;9641;51.494;6.670;2023-09-30T12:06:44;8.52;;;4.30;;
19016;SDS011;9641;51.494;6.670;2023-09-30T12:09:11;6.43;;;3.45;;
19016;SDS011;9641;51.494;6.670;2023-09-30T12:11:40;6.75;;;3.85;;
19016;SDS011;9641;51.494;6.670;2023-09-30T12:14:10;4.72;;;2.95;;
19016;SDS011;9641;51.494;6.670;2023-09-30T12:16:38;6.32;;;3.08;;
19016;SDS011;9641;51.494;6.670;2023-09-30T12:19:06;4.57;;;3.00;;
19016;SDS011;9641;51.494;6.670;2023-09-30T12:21:33;4.93;;;3.28;;
19016;SDS011;9641;51.494;6.670;2023-09-30T12:24:01;6.93;;;3.03;;
19016;SDS011;9641;51.494;6.670;2023-09-30T12:26:32;7.63;;;3.40;;
19016;SDS011;9641;51.494;6.670;2023-09-30T12:28:59;6.63;;;3.42;;
19016;SDS011;9641;51.494;6.670;2023-09-30T12:31:27;5.65;;;3.40;;
19016;SDS011;9641;51.494;6.670;2023-09-30T12:33:54;4.22;;;3.35;;
19016;SDS011;9641;51.494;6.670;2023-09-30T12:36:21;4.70;;;3.38;;
19016;SDS011;9641;51.494;6.670;2023-09-30T12:38:49;3.42;;;2.58;;
19016;SDS011;9641;51.494;6.670;2023-09-30T12:41:16;4.97;;;3.53;;
19016;SDS011;9641;51.494;6.670;2023-09-30T12:43:44;5.07;;;3.28;;
19016;SDS011;9641;51.494;6.670;2023-09-30T12:46:11;5.70;;;3.05;;
19016;SDS011;9641;51.494;6.670;2023-09-30T12:48:40;5.35;;;3.35;;
19016;SDS011;9641;51.494;6.670;2023-09-30T12:51:07;6.85;;;3.15;;
19016;SDS011;9641;51.494;6.670;2023-09-30T12:53:35;5.80;;;3.13;;
19016;SDS011;9641;51.494;6.670;2023-09-30T12:56:02;6.68;;;3.35;;
19016;SDS011;9641;51.494;6.670;2023-09-30T12:58:29;6.07;;;3.10;;
19016;SDS011;9641;51.494;6.670;2023-09-30T13:00:56;6.18;;;3.33;;
19016;SDS011;9641;51.494;6.670;2023-09-30T13:03:23;3.72;;;2.95;;
19016;SDS011;9641;51.494;6.670;2023-09-30T13:05:51;6.20;;;3.13;;
19016;SDS011;9641;51.494;6.670;2023-09-30T13:08:19;5.93;;;3.40;;
19016;SDS011;9641;51.494;6.670;2023-09-30T13:10:46;5.70;;;3.58;;
19016;SDS011;9641;51.494;6.670;2023-09-30T13:13:15;5.50;;;3.25;;
19016;SDS011;9641;51.494;6.670;2023-09-30T13:15:42;6.57;;;3.42;;
19016;SDS011;9641;51.494;6.670;2023-09-30T13:18:09;7.13;;;3.50;;
19016;SDS011;9641;51.494;6.670;2023-09-30T13:20:35;3.80;;;3.40;;
19016;SDS011;9641;51.494;6.670;2023-09-30T13:23:04;6.97;;;3.67;;
19016;SDS011;9641;51.494;6.670;2023-09-30T13:25:31;6.05;;;4.20;;
19016;SDS011;9641;51.494;6.670;2023-09-30T13:27:58;6.65;;;3.60;;
19016;SDS011;9641;51.494;6.670;2023-09-30T13:30:25;3.50;;;3.20;;
19016;SDS011;9641;51.494;6.670;2023-09-30T13:32:51;4.70;;;3.25;;
19016;SDS011;9641;51.494;6.670;2023-09-30T13:35:18;5.28;;;3.05;;
19016;SDS011;9641;51.494;6.670;2023-09-30T13:37:45;6.50;;;3.13;;
19016;SDS011;9641;51.494;6.670;2023-09-30T13:40:13;5.88;;;3.60;;
19016;SDS011;9641;51.494;6.670;2023-09-30T13:42:40;5.28;;;3.35;;
19016;SDS011;9641;51.494;6.670;2023-09-30T13:45:09;5.45;;;3.05;;
19016;SDS011;9641;51.494;6.670;2023-09-30T13:47:37;5.75;;;3.33;;
19016;SDS011;9641;51.494;6.670;2023-09-30T13:50:06;3.03;;;2.65;;
19016;SDS011;9641;51.494;6.670;2023-09-30T13:52:34;5.05;;;2.80;;
19016;SDS011;9641;51.494;6.670;2023-09-30T13:55:01;3.83;;;2.50;;
19016;SDS011;9641;51.494;6.670;2023-09-30T13:57:31;4.93;;;3.35;;
19016;SDS011;9641;51.494;6.670;2023-09-30T13:59:57;5.13;;;3.17;;
19016;SDS011;9641;51.494;6.670;2023-09-30T14:02:25;3.75;;;2.97;;
19016;SDS011;9641;51.494;6.670;2023-09-30T14:04:51;6.97;;;3.38;;
19016;SDS011;9641;51.494;6.670;2023-09-30T14:07:19;3.28;;;2.60;;
19016;SDS011;9641;51.494;6.670;2023-09-30T14:09:46;6.90;;;3.70;;
19016;SDS011;9641;51.494;6.670;2023-09-30T14:12:13;4.20;;;2.90;;
19016;SDS011;9641;51.494;6.670;2023-09-30T14:14:41;4.88;;;3.00;;
19016;SDS011;9641;51.494;6.670;2023-09-30T14:17:08;5.95;;;3.63;;
19016;SDS011;9641;51.494;6.670;2023-09-30T14:19:35;4.78;;;3.13;;
19016;SDS011;9641;51.494;6.670;2023-09-30T14:22:03;7.07;;;3.55;;
19016;SDS011;9641;51.494;6.670;2023-09-30T14:24:30;8.07;;;3.20;;
19016;SDS011;9641;51.494;6.670;2023-09-30T14:26:59;3.55;;;2.80;;
19016;SDS011;9641;51.494;6.670;2023-09-30T14:29:26;3.90;;;2.80;;
19016;SDS011;9641;51.494;6.670;2023-09-30T14:31:54;5.20;;;2.85;;
19016;SDS011;9641;51.494;6.670;2023-09-30T14:34:22;5.80;;;3.05;;
19016;SDS011;9641;51.494;6.670;2023-09-30T14:36:50;6.88;;;2.40;;
19016;SDS011;9641;51.494;6.670;2023-09-30T14:39:17;4.70;;;2.75;;
19016;SDS011;9641;51.494;6.670;2023-09-30T14:41:44;7.30;;;3.63;;
19016;SDS011;9641;51.494;6.670;2023-09-30T14:44:11;4.65;;;2.90;;
19016;SDS011;9641;51.494;6.670;2023-09-30T14:46:38;3.47;;;2.58;;
19016;SDS011;9641;51.494;6.670;2023-09-30T14:49:06;4.93;;;2.72;;
19016;SDS011;9641;51.494;6.670;2023-09-30T14:51:33;3.97;;;2.83;;
19016;SDS011;9641;51.494;6.670;2023-09-30T14:54:02;6.55;;;2.95;;
19016;SDS011;9641;51.494;6.670;2023-09-30T14:56:30;6.13;;;2.92;;
19016;SDS011;9641;51.494;6.670;2023-09-30T14:58:58;6.00;;;2.72;;
19016;SDS011;9641;51.494;6.670;2023-09-30T15:01:25;3.70;;;2.33;;
19016;SDS011;9641;51.494;6.670;2023-09-30T15:03:52;3.67;;;2.75;;
19016;SDS011;9641;51.494;6.670;2023-09-30T15:06:20;4.75;;;2.75;;
19016;SDS011;9641;51.494;6.670;2023-09-30T15:08:49;6.45;;;3.00;;